createdAt,value
2019-04-14T00:00:51.854Z,81.19
2019-04-14T00:03:21.724Z,80.79
2019-04-14T00:05:51.724Z,80.79
2019-04-14T00:08:19.898Z,80.78
2019-04-14T00:10:48.636Z,80.67
2019-04-14T00:13:17.480Z,80.55
2019-04-14T00:15:48.780Z,81.26
2019-04-14T00:18:16.453Z,81.26
2019-04-14T00:20:44.845Z,81.49
2019-04-14T00:23:13.286Z,81.49
2019-04-14T00:25:41.528Z,80.61
2019-04-14T00:28:09.755Z,80.79
2019-04-14T00:30:38.297Z,81.06
2019-04-14T00:33:10.821Z,81.06
2019-04-14T00:35:40.703Z,81.15
2019-04-14T00:38:17.445Z,81.59
2019-04-14T00:40:47.698Z,81.59
2019-04-14T00:43:24.465Z,80.93
2019-04-14T00:45:57.677Z,81.12
2019-04-14T00:48:25.965Z,80.81
2019-04-14T00:50:54.153Z,80.37
2019-04-14T00:53:22.912Z,80.37
2019-04-14T00:55:51.174Z,80.85
2019-04-14T00:58:19.589Z,81.02
2019-04-14T01:00:48.052Z,81.10
2019-04-14T01:03:17.532Z,80.86
2019-04-14T01:05:46.013Z,80.86
2019-04-14T01:08:14.226Z,80.98
2019-04-14T01:10:43.279Z,81.27
2019-04-14T01:13:12.724Z,81.27
2019-04-14T01:15:51.298Z,80.95
2019-04-14T01:18:12.553Z,82.05
2019-04-14T01:20:41.011Z,82.05
2019-04-14T01:23:10.560Z,82.19
2019-04-14T01:25:38.994Z,82.75
2019-04-14T01:28:08.871Z,82.09
2019-04-14T01:30:37.377Z,82.42
2019-04-14T01:33:05.839Z,82.42
2019-04-14T01:35:34.319Z,82.63
2019-04-14T01:38:03.694Z,82.93
2019-04-14T01:40:32.022Z,82.94
2019-04-14T01:43:01.592Z,82.71
2019-04-14T01:45:29.866Z,83.33
2019-04-14T01:47:58.101Z,83.33
2019-04-14T01:50:27.968Z,83.58
2019-04-14T01:53:03.908Z,83.44
2019-04-14T01:55:37.352Z,83.44
2019-04-14T01:58:07.862Z,82.68
2019-04-14T02:00:46.901Z,82.68
2019-04-14T02:03:15.129Z,82.77
2019-04-14T02:05:43.359Z,82.77
2019-04-14T02:08:11.599Z,82.60
2019-04-14T02:10:39.821Z,82.60
2019-04-14T02:13:09.311Z,82.84
2019-04-14T02:15:37.484Z,82.63
2019-04-14T02:18:05.795Z,83.34
2019-04-14T02:20:34.000Z,83.34
2019-04-14T02:23:02.193Z,82.47
2019-04-14T02:25:31.671Z,81.78
2019-04-14T02:28:00.153Z,81.78
2019-04-14T02:30:36.602Z,81.84
2019-04-14T02:33:32.183Z,81.87
2019-04-14T02:36:09.902Z,82.16
2019-04-14T02:38:34.091Z,81.99
2019-04-14T02:41:02.445Z,81.99
2019-04-14T02:43:33.352Z,81.87
2019-04-14T02:48:44.225Z,81.86
2019-04-14T02:50:56.169Z,81.07
2019-04-14T02:53:27.147Z,81.45
2019-04-14T02:55:59.800Z,81.45
2019-04-14T02:58:30.534Z,81.58
2019-04-14T03:00:58.316Z,81.91
2019-04-14T03:06:10.388Z,81.81
2019-04-14T03:08:26.048Z,81.43
2019-04-14T03:10:55.712Z,81.43
2019-04-14T03:21:19.994Z,80.64
2019-04-14T03:24:06.590Z,81.07
2019-04-14T03:26:38.236Z,81.33
2019-04-14T03:29:05.405Z,80.77
2019-04-14T03:34:23.540Z,81.23
2019-04-14T03:39:06.108Z,81.10
2019-04-14T03:41:41.228Z,81.10
2019-04-14T03:44:11.773Z,81.44
2019-04-14T03:46:45.312Z,81.81
2019-04-14T03:51:44.578Z,82.05
2019-04-14T03:54:03.431Z,81.83
2019-04-14T03:56:18.031Z,81.83
2019-04-14T03:58:46.549Z,82.54
2019-04-14T04:01:15.113Z,82.54
2019-04-14T04:03:43.605Z,81.90
2019-04-14T04:06:11.847Z,82.20
2019-04-14T04:08:40.000Z,81.98
2019-04-14T04:11:08.468Z,81.98
2019-04-14T04:13:36.857Z,81.94
2019-04-14T04:16:15.903Z,81.94
2019-04-14T04:18:55.761Z,81.64
2019-04-14T04:21:22.722Z,81.33
2019-04-14T04:23:53.287Z,81.28
2019-04-14T04:26:32.223Z,81.01
2019-04-14T04:29:04.889Z,81.20
2019-04-14T04:31:37.645Z,80.89
2019-04-14T04:34:16.293Z,80.18
2019-04-14T04:37:03.867Z,79.88
2019-04-14T04:39:38.054Z,79.79
2019-04-14T04:42:07.007Z,79.83
2019-04-14T04:44:35.636Z,79.76
2019-04-14T04:47:03.833Z,79.76
2019-04-14T04:49:32.906Z,79.88
2019-04-14T04:52:02.255Z,79.38
2019-04-14T04:54:30.488Z,79.23
2019-04-14T04:56:58.710Z,78.61
2019-04-14T04:59:27.785Z,78.61
2019-04-14T05:01:56.048Z,78.82
2019-04-14T05:04:24.406Z,78.82
2019-04-14T05:07:01.929Z,79.14
2019-04-14T05:09:38.767Z,78.87
2019-04-14T05:12:09.151Z,78.41
2019-04-14T05:14:43.376Z,78.41
2019-04-14T05:17:12.610Z,77.77
2019-04-14T05:19:42.017Z,77.77
2019-04-14T05:22:11.315Z,77.48
2019-04-14T05:24:39.736Z,77.48
2019-04-14T05:27:07.932Z,77.35
2019-04-14T05:29:36.543Z,76.95
2019-04-14T05:32:04.834Z,76.58
2019-04-14T05:34:33.066Z,76.50
2019-04-14T05:37:01.296Z,76.33
2019-04-14T05:39:30.781Z,75.22
2019-04-14T05:42:07.531Z,75.22
2019-04-14T05:44:29.670Z,75.69
2019-04-14T05:46:57.955Z,75.69
2019-04-14T05:49:34.831Z,75.28
2019-04-14T05:51:56.620Z,73.51
2019-04-14T05:54:25.246Z,74.04
2019-04-14T05:56:53.752Z,73.71
2019-04-14T05:59:22.025Z,72.64
2019-04-14T06:01:51.081Z,72.64
2019-04-14T06:04:20.038Z,72.91
2019-04-14T06:06:48.212Z,72.33
2019-04-14T06:09:16.666Z,72.54
2019-04-14T06:11:44.905Z,71.62
2019-04-14T06:14:13.130Z,71.91
2019-04-14T06:16:41.362Z,71.34
2019-04-14T06:19:09.586Z,70.80
2019-04-14T06:21:38.047Z,71.46
2019-04-14T06:24:06.276Z,71.19
2019-04-14T06:26:34.508Z,70.86
2019-04-14T06:29:02.732Z,71.06
2019-04-14T06:31:48.638Z,70.87
2019-04-14T06:34:18.719Z,70.29
2019-04-14T06:37:03.615Z,70.05
2019-04-14T06:39:33.511Z,69.31
2019-04-14T06:42:01.714Z,69.12
2019-04-14T06:44:29.936Z,69.18
2019-04-14T06:46:58.171Z,69.18
2019-04-14T06:49:26.400Z,68.03
2019-04-14T06:51:54.854Z,68.09
2019-04-14T06:54:23.302Z,67.28
2019-04-14T06:56:51.542Z,67.06
2019-04-14T06:59:19.771Z,67.48
2019-04-14T07:01:48.004Z,66.18
2019-04-14T07:04:16.448Z,66.85
2019-04-14T07:06:44.692Z,66.10
2019-04-14T07:09:13.137Z,66.14
2019-04-14T07:11:41.591Z,66.63
2019-04-14T07:14:09.813Z,67.24
2019-04-14T07:16:38.047Z,65.33
2019-04-14T07:19:06.495Z,65.64
2019-04-14T07:21:34.948Z,64.92
2019-04-14T07:24:03.173Z,64.61
2019-04-14T07:26:31.406Z,64.73
2019-04-14T07:28:59.634Z,64.33
2019-04-14T07:31:45.834Z,64.63
2019-04-14T07:34:24.222Z,65.21
2019-04-14T07:36:56.988Z,64.90
2019-04-14T07:39:41.887Z,62.22
2019-04-14T07:42:11.968Z,59.97
2019-04-14T07:44:57.807Z,59.33
2019-04-14T07:47:27.896Z,59.32
2019-04-14T07:50:14.614Z,58.60
2019-04-14T07:52:54.380Z,59.22
2019-04-14T07:55:36.410Z,59.54
2019-04-14T07:58:11.692Z,59.53
2019-04-14T08:00:41.601Z,60.28
2019-04-14T08:03:11.467Z,59.86
2019-04-14T08:05:41.471Z,59.39
2019-04-14T08:08:09.704Z,58.46
2019-04-14T08:10:37.936Z,58.64
2019-04-14T08:13:06.379Z,57.58
2019-04-14T08:15:34.829Z,58.30
2019-04-14T08:18:03.292Z,57.74
2019-04-14T08:20:31.749Z,58.16
2019-04-14T08:22:59.969Z,58.84
2019-04-14T08:25:28.422Z,58.36
2019-04-14T08:27:56.687Z,58.72
2019-04-14T08:30:25.147Z,58.78
2019-04-14T08:32:53.378Z,57.31
2019-04-14T08:35:21.826Z,56.95
2019-04-14T08:37:50.276Z,56.20
2019-04-14T08:40:18.581Z,56.10
2019-04-14T08:42:51.130Z,55.99
2019-04-14T08:45:32.742Z,56.05
2019-04-14T08:48:05.648Z,53.89
2019-04-14T08:50:39.657Z,54.42
2019-04-14T08:53:22.193Z,55.35
2019-04-14T08:56:09.902Z,55.63
2019-04-14T08:58:39.778Z,54.17
2019-04-14T09:01:09.640Z,54.09
2019-04-14T09:03:45.294Z,54.34
2019-04-14T09:06:15.380Z,53.90
2019-04-14T09:09:00.286Z,54.67
2019-04-14T09:11:32.804Z,55.04
2019-04-14T09:14:01.269Z,54.44
2019-04-14T09:16:29.710Z,54.68
2019-04-14T09:19:07.679Z,54.02
2019-04-14T09:21:27.885Z,53.49
2019-04-14T09:23:56.968Z,53.11
2019-04-14T09:26:25.259Z,53.15
2019-04-14T09:28:53.498Z,52.62
2019-04-14T09:31:21.718Z,52.73
2019-04-14T09:33:49.939Z,51.09
2019-04-14T09:36:18.170Z,48.64
2019-04-14T09:38:46.395Z,48.91
2019-04-14T09:41:14.630Z,49.09
2019-04-14T09:43:42.858Z,48.60
2019-04-14T09:46:11.244Z,47.87
2019-04-14T09:48:39.690Z,47.50
2019-04-14T09:51:07.922Z,46.09
2019-04-14T09:53:36.441Z,45.84
2019-04-14T09:56:04.905Z,45.68
2019-04-14T09:58:33.364Z,45.04
2019-04-14T10:01:01.818Z,45.21
2019-04-14T10:03:30.265Z,44.84
2019-04-14T10:05:58.646Z,44.40
2019-04-14T10:08:26.906Z,43.72
2019-04-14T10:10:55.376Z,42.19
2019-04-14T10:13:23.882Z,42.43
2019-04-14T10:15:52.119Z,43.02
2019-04-14T10:18:20.571Z,44.10
2019-04-14T10:20:49.031Z,43.14
2019-04-14T10:23:17.258Z,43.97
2019-04-14T10:25:45.515Z,43.07
2019-04-14T10:28:13.954Z,42.74
2019-04-14T10:30:42.424Z,42.53
2019-04-14T10:33:10.671Z,42.20
2019-04-14T10:35:38.889Z,41.77
2019-04-14T10:38:07.122Z,41.53
2019-04-14T10:40:35.342Z,42.44
2019-04-14T10:43:03.580Z,42.10
2019-04-14T10:45:31.799Z,41.47
2019-04-14T10:48:00.030Z,41.87
2019-04-14T10:50:31.169Z,43.02
2019-04-14T10:52:58.215Z,41.96
2019-04-14T10:55:26.438Z,41.24
2019-04-14T10:57:54.675Z,42.05
2019-04-14T11:00:22.903Z,42.09
2019-04-14T11:02:51.142Z,42.13
2019-04-14T11:05:19.594Z,41.93
2019-04-14T11:07:47.839Z,41.94
2019-04-14T11:10:16.134Z,42.48
2019-04-14T11:12:44.366Z,40.99
2019-04-14T11:15:15.421Z,41.24
2019-04-14T11:17:42.852Z,41.53
2019-04-14T11:20:11.142Z,40.66
2019-04-14T11:22:39.601Z,41.07
2019-04-14T11:25:08.501Z,41.44
2019-04-14T11:27:36.736Z,40.50
2019-04-14T11:30:08.212Z,40.10
2019-04-14T11:32:43.844Z,40.40
2019-04-14T11:35:16.351Z,40.92
2019-04-14T11:37:48.433Z,40.15
2019-04-14T11:40:18.293Z,40.91
2019-04-14T11:42:52.525Z,41.11
2019-04-14T11:45:16.714Z,40.78
2019-04-14T11:47:44.952Z,40.01
2019-04-14T11:50:13.245Z,40.31
2019-04-14T11:52:41.479Z,40.87
2019-04-14T11:55:09.786Z,42.48
2019-04-14T11:57:38.262Z,41.04
2019-04-14T12:00:25.848Z,40.36
2019-04-14T12:03:11.910Z,39.68
2019-04-14T12:05:57.547Z,39.81
2019-04-14T12:08:27.431Z,39.80
2019-04-14T12:10:55.664Z,40.05
2019-04-14T12:13:23.903Z,41.07
2019-04-14T12:15:52.129Z,40.91
2019-04-14T12:18:20.354Z,40.19
2019-04-14T12:20:48.592Z,40.07
2019-04-14T12:23:17.043Z,40.18
2019-04-14T12:25:45.510Z,39.23
2019-04-14T12:28:13.733Z,39.97
2019-04-14T12:30:42.215Z,40.33
2019-04-14T12:33:10.441Z,40.60
2019-04-14T12:35:38.680Z,39.22
2019-04-14T12:38:07.140Z,40.12
2019-04-14T12:40:35.377Z,40.50
2019-04-14T12:43:05.466Z,40.17
2019-04-14T12:45:38.028Z,40.31
2019-04-14T12:48:08.111Z,39.22
2019-04-14T12:50:38.207Z,38.89
2019-04-14T12:53:06.434Z,38.99
2019-04-14T12:55:34.837Z,39.21
2019-04-14T12:58:04.705Z,38.61
2019-04-14T13:00:37.484Z,39.15
2019-04-14T13:03:05.710Z,37.88
2019-04-14T13:05:33.946Z,38.98
2019-04-14T13:08:02.402Z,37.67
2019-04-14T13:10:30.635Z,37.77
2019-04-14T13:12:58.858Z,38.03
2019-04-14T13:15:27.117Z,37.92
2019-04-14T13:17:55.557Z,38.70
2019-04-14T13:20:24.015Z,39.25
2019-04-14T13:22:52.249Z,39.19
2019-04-14T13:25:20.471Z,39.39
2019-04-14T13:27:50.051Z,39.64
2019-04-14T13:30:19.909Z,39.43
2019-04-14T13:32:48.142Z,38.86
2019-04-14T13:35:16.371Z,38.62
2019-04-14T13:37:44.860Z,38.55
2019-04-14T13:40:13.593Z,38.57
2019-04-14T13:42:41.835Z,38.60
2019-04-14T13:45:10.061Z,38.71
2019-04-14T13:47:38.303Z,38.16
2019-04-14T13:50:07.100Z,38.67
2019-04-14T13:52:46.086Z,38.69
2019-04-14T13:55:06.917Z,38.92
2019-04-14T13:57:35.379Z,39.35
2019-04-14T14:00:05.919Z,39.63
2019-04-14T14:02:34.149Z,39.92
2019-04-14T14:05:02.379Z,40.50
2019-04-14T14:07:30.618Z,40.73
2019-04-14T14:09:59.071Z,40.66
2019-04-14T14:12:28.951Z,40.64
2019-04-14T14:15:02.499Z,40.61
2019-04-14T14:17:44.069Z,41.11
2019-04-14T14:20:16.991Z,40.73
2019-04-14T14:22:59.095Z,40.86
2019-04-14T14:25:23.843Z,40.58
2019-04-14T14:27:52.315Z,40.99
2019-04-14T14:30:20.926Z,41.40
2019-04-14T14:32:49.369Z,41.59
2019-04-14T14:35:17.821Z,42.43
2019-04-14T14:37:46.065Z,42.85
2019-04-14T14:40:14.463Z,43.67
2019-04-14T14:42:42.995Z,44.24
2019-04-14T14:45:13.422Z,45.03
2019-04-14T14:47:43.317Z,45.73
2019-04-14T14:50:13.187Z,45.92
2019-04-14T14:52:41.613Z,46.05
2019-04-14T14:55:09.834Z,45.97
2019-04-14T14:57:38.057Z,46.28
2019-04-14T15:00:10.049Z,45.87
2019-04-14T15:02:38.290Z,45.60
2019-04-14T15:05:06.997Z,45.73
2019-04-14T15:07:35.232Z,45.44
2019-04-14T15:10:04.823Z,44.79
2019-04-14T15:12:33.243Z,45.15
2019-04-14T15:15:01.705Z,45.29
2019-04-14T15:17:30.173Z,46.30
2019-04-14T15:19:58.642Z,47.67
2019-04-14T15:22:26.871Z,47.26
2019-04-14T15:24:55.110Z,47.69
2019-04-14T15:27:23.632Z,47.50
2019-04-14T15:29:52.124Z,47.64
2019-04-14T15:32:20.336Z,47.64
2019-04-14T15:34:48.558Z,47.23
2019-04-14T15:37:16.788Z,47.44
2019-04-14T15:39:45.023Z,47.41
2019-04-14T15:42:13.251Z,47.60
2019-04-14T15:44:41.493Z,48.59
2019-04-14T15:47:09.724Z,47.58
2019-04-14T15:49:37.958Z,47.30
2019-04-14T15:52:06.409Z,47.26
2019-04-14T15:54:34.638Z,47.68
2019-04-14T15:57:20.517Z,47.67
2019-04-14T15:59:50.614Z,48.72
2019-04-14T16:02:21.156Z,48.99
2019-04-14T16:04:51.019Z,49.36
2019-04-14T16:07:32.909Z,49.65
2019-04-14T16:10:18.706Z,50.14
2019-04-14T16:12:54.864Z,51.20
2019-04-14T16:15:27.495Z,51.16
2019-04-14T16:18:00.474Z,51.13
2019-04-14T16:20:30.344Z,51.36
2019-04-14T16:22:58.789Z,51.63
2019-04-14T16:25:40.174Z,51.96
2019-04-14T16:28:19.041Z,52.10
2019-04-14T16:31:05.083Z,52.55
2019-04-14T16:33:35.170Z,52.64
2019-04-14T16:36:03.621Z,53.09
2019-04-14T16:38:31.846Z,53.02
2019-04-14T16:41:00.083Z,53.35
2019-04-14T16:43:28.528Z,54.03
2019-04-14T16:45:56.780Z,53.84
2019-04-14T16:48:25.039Z,53.58
2019-04-14T16:50:53.232Z,53.39
2019-04-14T16:53:25.801Z,53.51
2019-04-14T16:56:11.869Z,53.35
2019-04-14T16:58:41.947Z,52.91
2019-04-14T17:01:20.651Z,52.73
2019-04-14T17:03:49.104Z,52.96
2019-04-14T17:06:17.330Z,53.22
2019-04-14T17:08:45.572Z,53.33
2019-04-14T17:11:13.813Z,53.58
2019-04-14T17:13:43.902Z,53.68
2019-04-14T17:16:22.638Z,54.50
2019-04-14T17:18:58.643Z,54.26
2019-04-14T17:21:37.333Z,54.27
2019-04-14T17:24:19.060Z,54.62
2019-04-14T17:26:48.934Z,53.98
2019-04-14T17:29:30.595Z,54.21
2019-04-14T17:32:03.169Z,54.33
2019-04-14T17:34:33.029Z,54.23
2019-04-14T17:37:05.819Z,54.39
2019-04-14T17:39:47.397Z,55.01
2019-04-14T17:42:22.936Z,55.09
2019-04-14T17:44:52.812Z,55.30
2019-04-14T17:47:39.099Z,55.59
2019-04-14T17:50:39.780Z,55.82
2019-04-14T17:53:01.552Z,56.19
2019-04-14T17:55:49.704Z,56.71
2019-04-14T17:58:14.186Z,57.19
2019-04-14T18:00:44.278Z,57.45
2019-04-14T18:03:32.367Z,57.78
2019-04-14T18:06:13.927Z,58.08
2019-04-14T18:08:59.796Z,58.39
2019-04-14T18:11:45.236Z,58.61
2019-04-14T18:14:15.347Z,59.04
2019-04-14T18:17:03.295Z,59.33
2019-04-14T18:19:33.169Z,59.59
2019-04-14T18:22:01.685Z,59.67
2019-04-14T18:24:41.652Z,59.84
2019-04-14T18:27:00.099Z,60.02
2019-04-14T18:29:36.133Z,59.98
2019-04-14T18:32:12.401Z,60.41
2019-04-14T18:34:58.127Z,60.61
2019-04-14T18:37:30.445Z,60.18
2019-04-14T18:40:15.375Z,60.36
2019-04-14T18:42:45.548Z,60.57
2019-04-14T18:45:25.602Z,60.63
2019-04-14T18:47:55.719Z,60.77
2019-04-14T18:50:40.642Z,60.95
2019-04-14T18:53:22.927Z,61.07
2019-04-14T18:55:52.822Z,61.26
2019-04-14T18:58:37.721Z,61.57
2019-04-14T19:01:10.558Z,61.60
2019-04-14T19:03:38.910Z,61.75
2019-04-14T19:06:07.099Z,61.79
2019-04-14T19:08:35.408Z,62.10
2019-04-14T19:11:17.015Z,62.10
2019-04-14T19:13:46.843Z,62.32
2019-04-14T19:16:17.018Z,62.34
2019-04-14T19:18:46.955Z,62.51
2019-04-14T19:21:17.053Z,62.83
2019-04-14T19:23:46.705Z,63.09
2019-04-14T19:26:15.020Z,63.28
2019-04-14T19:28:43.254Z,63.63
2019-04-14T19:31:11.681Z,63.63
2019-04-14T19:33:40.178Z,63.48
2019-04-14T19:36:08.415Z,63.54
2019-04-14T19:38:36.642Z,63.25
2019-04-14T19:41:05.425Z,62.72
2019-04-14T19:43:33.661Z,62.53
2019-04-14T19:46:02.190Z,62.13
2019-04-14T19:48:30.646Z,61.74
2019-04-14T19:50:59.109Z,61.77
2019-04-14T19:53:27.561Z,61.34
2019-04-14T19:55:56.021Z,61.45
2019-04-14T19:58:24.250Z,61.75
2019-04-14T20:00:52.721Z,62.00
2019-04-14T20:03:21.167Z,62.16
2019-04-14T20:05:49.407Z,61.87
2019-04-14T20:08:17.869Z,62.15
2019-04-14T20:10:46.108Z,62.03
2019-04-14T20:13:14.335Z,62.03
2019-04-14T20:15:56.118Z,61.99
2019-04-14T20:18:25.987Z,62.43
2019-04-14T20:20:59.055Z,62.38
2019-04-14T20:23:37.690Z,62.22
2019-04-14T20:26:16.368Z,62.32
2019-04-14T20:28:46.225Z,62.62
2019-04-14T20:31:31.967Z,63.00
2019-04-14T20:34:00.508Z,63.10
2019-04-14T20:36:28.815Z,62.86
2019-04-14T20:38:57.069Z,63.34
2019-04-14T20:41:25.295Z,63.06
2019-04-14T20:43:53.538Z,63.60
2019-04-14T20:46:22.083Z,64.10
2019-04-14T20:48:50.757Z,63.55
2019-04-14T20:51:18.989Z,63.52
2019-04-14T20:53:47.517Z,63.29
2019-04-14T20:56:15.746Z,64.24
2019-04-14T20:58:43.982Z,63.68
2019-04-14T21:01:13.178Z,64.73
2019-04-14T21:03:48.519Z,64.08
2019-04-14T21:06:26.980Z,64.55
2019-04-14T21:08:56.850Z,64.00
2019-04-14T21:11:26.719Z,64.04
2019-04-14T21:14:02.237Z,64.19
2019-04-14T21:16:41.253Z,63.73
2019-04-14T21:19:22.940Z,64.09
2019-04-14T21:21:52.802Z,64.15
2019-04-14T21:24:34.427Z,64.55
2019-04-14T21:27:04.381Z,64.27
2019-04-14T21:29:50.420Z,64.33
2019-04-14T21:32:20.285Z,64.68
2019-04-14T21:34:52.931Z,64.71
2019-04-14T21:37:34.471Z,64.77
2019-04-14T21:40:22.912Z,65.04
2019-04-14T21:42:51.209Z,65.17
2019-04-14T21:45:19.442Z,65.38
2019-04-14T21:47:47.894Z,65.58
2019-04-14T21:50:16.300Z,65.95
2019-04-14T21:52:49.320Z,65.98
2019-04-14T21:55:16.139Z,66.12
2019-04-14T21:57:49.026Z,66.24
2019-04-14T22:00:35.418Z,66.26
2019-04-14T22:03:14.379Z,66.60
2019-04-14T22:05:46.916Z,66.52
2019-04-14T22:08:17.073Z,66.63
2019-04-14T22:10:55.495Z,66.69
2019-04-14T22:13:24.390Z,66.77
2019-04-14T22:15:53.300Z,66.94
2019-04-14T22:18:21.813Z,67.42
2019-04-14T22:20:50.052Z,67.36
2019-04-14T22:23:18.581Z,67.34
2019-04-14T22:25:46.846Z,67.28
2019-04-14T22:28:15.129Z,67.40
2019-04-14T22:30:43.438Z,67.47
2019-04-14T22:33:11.894Z,67.71
2019-04-14T22:35:40.531Z,67.71
2019-04-14T22:38:08.751Z,67.98
2019-04-14T22:40:37.279Z,67.92
2019-04-14T22:43:05.502Z,67.82
2019-04-14T22:45:33.882Z,67.87
2019-04-14T22:48:02.108Z,68.29
2019-04-14T22:50:30.346Z,68.07
2019-04-14T22:52:58.569Z,68.12
2019-04-14T22:55:26.905Z,68.08
2019-04-14T22:57:55.133Z,68.06
2019-04-14T23:00:41.823Z,68.14
2019-04-14T23:03:11.684Z,68.17
2019-04-14T23:05:49.962Z,68.53
2019-04-14T23:08:22.786Z,68.59
2019-04-14T23:11:01.331Z,68.66
2019-04-14T23:13:37.103Z,68.64
2019-04-14T23:16:07.269Z,68.76
2019-04-14T23:18:39.864Z,68.92
2019-04-14T23:21:15.988Z,69.17
2019-04-14T23:23:51.696Z,69.75
2019-04-14T23:26:19.938Z,69.21
2019-04-14T23:28:48.156Z,69.26
2019-04-14T23:31:16.384Z,69.27
2019-04-14T23:33:44.675Z,69.40
2019-04-14T23:36:13.077Z,69.42
2019-04-14T23:38:41.319Z,69.66
2019-04-14T23:41:09.538Z,69.74
2019-04-14T23:43:38.002Z,69.92
2019-04-14T23:46:06.230Z,70.06
2019-04-14T23:48:34.849Z,70.28
2019-04-14T23:51:03.085Z,71.15
2019-04-14T23:53:31.327Z,70.87
2019-04-14T23:55:59.889Z,71.39
2019-04-14T23:58:28.121Z,71.45
